sensor_id;sensor_type;location;lat;lon;timestamp;temperature;humidity
11256;HTU21D;5685;52.384;13.420;2022-09-21T00:00:09;18.30;99.90
11256;HTU21D;5685;52.384;13.420;2022-09-21T00:03:13;18.30;99.90
11256;HTU21D;5685;52.384;13.420;2022-09-21T00:06:17;18.30;99.90
11256;HTU21D;5685;52.384;13.420;2022-09-21T00:09:20;18.30;99.90
11256;HTU21D;5685;52.384;13.420;2022-09-21T00:12:24;18.30;99.90
11256;HTU21D;5685;52.384;13.420;2022-09-21T00:15:26;18.30;99.90
11256;HTU21D;5685;52.384;13.420;2022-09-21T00:18:28;18.30;99.90
11256;HTU21D;5685;52.384;13.420;2022-09-21T00:21:30;18.30;99.90
11256;HTU21D;5685;52.384;13.420;2022-09-21T00:24:33;18.30;99.90
11256;HTU21D;5685;52.384;13.420;2022-09-21T00:27:37;18.30;99.90
11256;HTU21D;5685;52.384;13.420;2022-09-21T00:30:39;18.30;99.90
11256;HTU21D;5685;52.384;13.420;2022-09-21T00:33:42;18.30;99.90
11256;HTU21D;5685;52.384;13.420;2022-09-21T00:36:44;18.30;99.90
11256;HTU21D;5685;52.384;13.420;2022-09-21T00:39:47;18.30;99.90
11256;HTU21D;5685;52.384;13.420;2022-09-21T00:42:51;18.30;99.90
11256;HTU21D;5685;52.384;13.420;2022-09-21T00:45:58;18.30;99.90
11256;HTU21D;5685;52.384;13.420;2022-09-21T00:49:02;18.30;99.90
11256;HTU21D;5685;52.384;13.420;2022-09-21T00:52:05;18.30;99.90
11256;HTU21D;5685;52.384;13.420;2022-09-21T00:55:10;18.20;99.90
11256;HTU21D;5685;52.384;13.420;2022-09-21T00:58:21;18.20;99.90
11256;HTU21D;5685;52.384;13.420;2022-09-21T01:01:27;18.20;99.90
11256;HTU21D;5685;52.384;13.420;2022-09-21T01:04:30;18.20;99.90
11256;HTU21D;5685;52.384;13.420;2022-09-21T01:07:35;18.20;99.90
11256;HTU21D;5685;52.384;13.420;2022-09-21T01:10:49;18.20;99.90
11256;HTU21D;5685;52.384;13.420;2022-09-21T01:14:14;18.20;99.90
11256;HTU21D;5685;52.384;13.420;2022-09-21T01:17:31;18.20;99.90
11256;HTU21D;5685;52.384;13.420;2022-09-21T01:21:05;18.20;99.90
11256;HTU21D;5685;52.384;13.420;2022-09-21T01:24:30;18.20;99.90
11256;HTU21D;5685;52.384;13.420;2022-09-21T01:27:51;18.20;99.90
11256;HTU21D;5685;52.384;13.420;2022-09-21T01:31:03;18.20;99.90
11256;HTU21D;5685;52.384;13.420;2022-09-21T01:34:11;18.20;99.90
11256;HTU21D;5685;52.384;13.420;2022-09-21T01:37:20;18.20;99.90
11256;HTU21D;5685;52.384;13.420;2022-09-21T01:40:28;18.10;99.90
11256;HTU21D;5685;52.384;13.420;2022-09-21T01:43:36;18.10;99.90
11256;HTU21D;5685;52.384;13.420;2022-09-21T01:46:41;18.10;99.90
11256;HTU21D;5685;52.384;13.420;2022-09-21T01:49:46;18.10;99.90
11256;HTU21D;5685;52.384;13.420;2022-09-21T01:52:53;18.10;99.90
11256;HTU21D;5685;52.384;13.420;2022-09-21T01:56:01;18.10;99.90
11256;HTU21D;5685;52.384;13.420;2022-09-21T01:59:09;18.10;99.90
11256;HTU21D;5685;52.384;13.420;2022-09-21T02:02:18;18.10;99.90
11256;HTU21D;5685;52.384;13.420;2022-09-21T02:05:25;18.10;99.90
11256;HTU21D;5685;52.384;13.420;2022-09-21T02:08:30;18.10;99.90
11256;HTU21D;5685;52.384;13.420;2022-09-21T02:11:33;18.10;99.90
11256;HTU21D;5685;52.384;13.420;2022-09-21T02:14:38;18.10;99.90
11256;HTU21D;5685;52.384;13.420;2022-09-21T02:17:50;18.10;99.90
11256;HTU21D;5685;52.384;13.420;2022-09-21T02:20:56;18.10;99.90
11256;HTU21D;5685;52.384;13.420;2022-09-21T02:24:09;18.00;99.90
11256;HTU21D;5685;52.384;13.420;2022-09-21T02:27:22;18.00;99.90
11256;HTU21D;5685;52.384;13.420;2022-09-21T02:30:32;18.10;99.90
11256;HTU21D;5685;52.384;13.420;2022-09-21T02:33:42;18.00;99.90
11256;HTU21D;5685;52.384;13.420;2022-09-21T02:36:51;18.00;99.90
11256;HTU21D;5685;52.384;13.420;2022-09-21T02:40:00;18.00;99.90
11256;HTU21D;5685;52.384;13.420;2022-09-21T02:43:08;18.00;99.90
11256;HTU21D;5685;52.384;13.420;2022-09-21T02:46:16;18.00;99.90
11256;HTU21D;5685;52.384;13.420;2022-09-21T02:49:26;18.00;99.90
11256;HTU21D;5685;52.384;13.420;2022-09-21T02:52:33;18.00;99.90
11256;HTU21D;5685;52.384;13.420;2022-09-21T02:55:36;18.00;99.90
11256;HTU21D;5685;52.384;13.420;2022-09-21T02:58:46;18.00;99.90
11256;HTU21D;5685;52.384;13.420;2022-09-21T03:01:51;18.00;99.90
11256;HTU21D;5685;52.384;13.420;2022-09-21T03:04:54;17.90;99.90
11256;HTU21D;5685;52.384;13.420;2022-09-21T03:07:56;17.90;99.90
11256;HTU21D;5685;52.384;13.420;2022-09-21T03:10:59;17.90;99.90
11256;HTU21D;5685;52.384;13.420;2022-09-21T03:14:02;17.90;99.90
11256;HTU21D;5685;52.384;13.420;2022-09-21T03:17:08;17.90;99.90
11256;HTU21D;5685;52.384;13.420;2022-09-21T03:20:11;17.90;99.90
11256;HTU21D;5685;52.384;13.420;2022-09-21T03:23:13;17.90;99.90
11256;HTU21D;5685;52.384;13.420;2022-09-21T03:26:15;17.90;99.90
11256;HTU21D;5685;52.384;13.420;2022-09-21T03:29:21;17.90;99.90
11256;HTU21D;5685;52.384;13.420;2022-09-21T03:32:23;17.90;99.90
11256;HTU21D;5685;52.384;13.420;2022-09-21T03:35:27;17.90;99.90
11256;HTU21D;5685;52.384;13.420;2022-09-21T03:38:29;17.90;99.90
11256;HTU21D;5685;52.384;13.420;2022-09-21T03:41:31;17.80;99.90
11256;HTU21D;5685;52.384;13.420;2022-09-21T03:44:34;17.80;99.90
11256;HTU21D;5685;52.384;13.420;2022-09-21T03:47:38;17.80;99.90
11256;HTU21D;5685;52.384;13.420;2022-09-21T03:50:41;17.80;99.90
11256;HTU21D;5685;52.384;13.420;2022-09-21T03:53:43;17.80;99.90
11256;HTU21D;5685;52.384;13.420;2022-09-21T03:56:45;17.80;99.90
11256;HTU21D;5685;52.384;13.420;2022-09-21T03:59:47;17.80;99.90
11256;HTU21D;5685;52.384;13.420;2022-09-21T04:02:49;17.80;99.90
11256;HTU21D;5685;52.384;13.420;2022-09-21T04:05:53;17.80;99.90
11256;HTU21D;5685;52.384;13.420;2022-09-21T04:08:55;17.80;99.90
11256;HTU21D;5685;52.384;13.420;2022-09-21T04:11:59;17.80;99.90
11256;HTU21D;5685;52.384;13.420;2022-09-21T04:15:02;17.70;99.90
11256;HTU21D;5685;52.384;13.420;2022-09-21T04:18:07;17.80;99.90
11256;HTU21D;5685;52.384;13.420;2022-09-21T04:21:10;17.70;99.90
11256;HTU21D;5685;52.384;13.420;2022-09-21T04:24:13;17.70;99.90
11256;HTU21D;5685;52.384;13.420;2022-09-21T04:27:16;17.70;99.90
11256;HTU21D;5685;52.384;13.420;2022-09-21T04:30:18;17.70;99.90
11256;HTU21D;5685;52.384;13.420;2022-09-21T04:33:21;17.70;99.90
11256;HTU21D;5685;52.384;13.420;2022-09-21T04:36:27;17.70;99.90
11256;HTU21D;5685;52.384;13.420;2022-09-21T04:39:29;17.70;99.90
11256;HTU21D;5685;52.384;13.420;2022-09-21T04:42:31;17.70;99.90
11256;HTU21D;5685;52.384;13.420;2022-09-21T04:45:33;17.70;99.90
11256;HTU21D;5685;52.384;13.420;2022-09-21T04:48:36;17.70;99.90
11256;HTU21D;5685;52.384;13.420;2022-09-21T04:51:40;17.70;99.90
11256;HTU21D;5685;52.384;13.420;2022-09-21T04:54:42;17.70;99.90
11256;HTU21D;5685;52.384;13.420;2022-09-21T04:57:44;17.60;99.90
11256;HTU21D;5685;52.384;13.420;2022-09-21T05:00:48;17.60;99.90
11256;HTU21D;5685;52.384;13.420;2022-09-21T05:03:51;17.60;99.90
11256;HTU21D;5685;52.384;13.420;2022-09-21T05:06:55;17.60;99.90
11256;HTU21D;5685;52.384;13.420;2022-09-21T05:09:58;17.60;99.90
11256;HTU21D;5685;52.384;13.420;2022-09-21T05:13:02;17.60;99.90
11256;HTU21D;5685;52.384;13.420;2022-09-21T05:16:04;17.60;99.90
11256;HTU21D;5685;52.384;13.420;2022-09-21T05:19:07;17.60;99.90
11256;HTU21D;5685;52.384;13.420;2022-09-21T05:22:10;17.60;99.90
11256;HTU21D;5685;52.384;13.420;2022-09-21T05:25:13;17.50;99.90
11256;HTU21D;5685;52.384;13.420;2022-09-21T05:28:16;17.60;99.90
11256;HTU21D;5685;52.384;13.420;2022-09-21T05:31:31;17.60;99.90
11256;HTU21D;5685;52.384;13.420;2022-09-21T05:34:56;17.50;99.90
11256;HTU21D;5685;52.384;13.420;2022-09-21T05:38:10;17.50;99.90
11256;HTU21D;5685;52.384;13.420;2022-09-21T05:41:16;17.50;99.90
11256;HTU21D;5685;52.384;13.420;2022-09-21T05:44:19;17.50;99.90
11256;HTU21D;5685;52.384;13.420;2022-09-21T05:47:24;17.50;99.90
11256;HTU21D;5685;52.384;13.420;2022-09-21T05:50:39;17.50;99.90
11256;HTU21D;5685;52.384;13.420;2022-09-21T05:53:55;17.50;99.90
11256;HTU21D;5685;52.384;13.420;2022-09-21T05:57:04;17.50;99.90
11256;HTU21D;5685;52.384;13.420;2022-09-21T06:00:14;17.50;99.90
11256;HTU21D;5685;52.384;13.420;2022-09-21T06:03:26;17.50;99.90
11256;HTU21D;5685;52.384;13.420;2022-09-21T06:06:29;17.50;99.90
11256;HTU21D;5685;52.384;13.420;2022-09-21T06:09:32;17.50;99.90
11256;HTU21D;5685;52.384;13.420;2022-09-21T06:12:35;17.50;99.90
11256;HTU21D;5685;52.384;13.420;2022-09-21T06:15:37;17.40;99.90
11256;HTU21D;5685;52.384;13.420;2022-09-21T06:18:40;17.40;99.90
11256;HTU21D;5685;52.384;13.420;2022-09-21T06:21:43;17.40;99.90
11256;HTU21D;5685;52.384;13.420;2022-09-21T06:24:46;17.40;99.90
11256;HTU21D;5685;52.384;13.420;2022-09-21T06:27:49;17.40;99.90
11256;HTU21D;5685;52.384;13.420;2022-09-21T06:30:51;17.40;99.90
11256;HTU21D;5685;52.384;13.420;2022-09-21T06:33:54;17.40;99.90
11256;HTU21D;5685;52.384;13.420;2022-09-21T06:36:57;17.40;99.90
11256;HTU21D;5685;52.384;13.420;2022-09-21T06:40:01;17.30;99.90
11256;HTU21D;5685;52.384;13.420;2022-09-21T06:43:04;17.30;99.90
11256;HTU21D;5685;52.384;13.420;2022-09-21T06:46:07;17.30;99.90
11256;HTU21D;5685;52.384;13.420;2022-09-21T06:49:09;17.30;99.90
11256;HTU21D;5685;52.384;13.420;2022-09-21T06:52:11;17.30;99.90
11256;HTU21D;5685;52.384;13.420;2022-09-21T06:55:14;17.30;99.90
11256;HTU21D;5685;52.384;13.420;2022-09-21T06:58:17;17.30;99.90
11256;HTU21D;5685;52.384;13.420;2022-09-21T07:01:19;17.30;99.90
11256;HTU21D;5685;52.384;13.420;2022-09-21T07:04:22;17.30;99.90
11256;HTU21D;5685;52.384;13.420;2022-09-21T07:07:27;17.30;99.90
11256;HTU21D;5685;52.384;13.420;2022-09-21T07:10:32;17.20;99.90
11256;HTU21D;5685;52.384;13.420;2022-09-21T07:13:34;17.20;99.90
11256;HTU21D;5685;52.384;13.420;2022-09-21T07:16:36;17.30;99.90
11256;HTU21D;5685;52.384;13.420;2022-09-21T07:19:38;17.20;99.90
11256;HTU21D;5685;52.384;13.420;2022-09-21T07:22:40;17.20;99.90
11256;HTU21D;5685;52.384;13.420;2022-09-21T07:25:45;17.20;99.90
11256;HTU21D;5685;52.384;13.420;2022-09-21T07:28:48;17.20;99.90
11256;HTU21D;5685;52.384;13.420;2022-09-21T07:31:50;17.20;99.90
11256;HTU21D;5685;52.384;13.420;2022-09-21T07:34:53;17.20;99.90
11256;HTU21D;5685;52.384;13.420;2022-09-21T07:37:57;17.20;99.90
11256;HTU21D;5685;52.384;13.420;2022-09-21T07:41:02;17.20;99.90
11256;HTU21D;5685;52.384;13.420;2022-09-21T07:44:04;17.20;99.90
11256;HTU21D;5685;52.384;13.420;2022-09-21T07:47:06;17.20;99.90
11256;HTU21D;5685;52.384;13.420;2022-09-21T07:50:09;17.10;99.90
11256;HTU21D;5685;52.384;13.420;2022-09-21T07:53:11;17.10;99.90
11256;HTU21D;5685;52.384;13.420;2022-09-21T07:56:15;17.10;99.90
11256;HTU21D;5685;52.384;13.420;2022-09-21T07:59:19;17.10;99.90
11256;HTU21D;5685;52.384;13.420;2022-09-21T08:02:20;17.10;99.90
11256;HTU21D;5685;52.384;13.420;2022-09-21T08:05:22;17.10;99.90
11256;HTU21D;5685;52.384;13.420;2022-09-21T08:08:24;17.10;99.90
11256;HTU21D;5685;52.384;13.420;2022-09-21T08:11:29;17.10;99.90
11256;HTU21D;5685;52.384;13.420;2022-09-21T08:14:32;17.10;99.90
11256;HTU21D;5685;52.384;13.420;2022-09-21T08:17:37;17.10;99.90
11256;HTU21D;5685;52.384;13.420;2022-09-21T08:20:39;17.10;99.90
11256;HTU21D;5685;52.384;13.420;2022-09-21T08:23:42;17.10;99.90
11256;HTU21D;5685;52.384;13.420;2022-09-21T08:26:46;17.10;99.90
11256;HTU21D;5685;52.384;13.420;2022-09-21T08:29:51;17.10;99.90
11256;HTU21D;5685;52.384;13.420;2022-09-21T08:32:54;17.10;99.90
11256;HTU21D;5685;52.384;13.420;2022-09-21T08:35:57;17.10;99.90
11256;HTU21D;5685;52.384;13.420;2022-09-21T08:39:00;17.10;99.90
11256;HTU21D;5685;52.384;13.420;2022-09-21T08:42:29;17.10;99.90
11256;HTU21D;5685;52.384;13.420;2022-09-21T08:45:41;17.10;99.90
11256;HTU21D;5685;52.384;13.420;2022-09-21T08:48:48;17.10;99.90
11256;HTU21D;5685;52.384;13.420;2022-09-21T08:51:57;17.10;99.90
11256;HTU21D;5685;52.384;13.420;2022-09-21T08:55:05;17.10;99.90
11256;HTU21D;5685;52.384;13.420;2022-09-21T08:58:20;17.10;99.90
11256;HTU21D;5685;52.384;13.420;2022-09-21T09:01:47;17.10;99.90
11256;HTU21D;5685;52.384;13.420;2022-09-21T09:05:02;17.10;99.90
11256;HTU21D;5685;52.384;13.420;2022-09-21T09:08:24;17.10;99.90
11256;HTU21D;5685;52.384;13.420;2022-09-21T09:11:59;17.10;99.90
11256;HTU21D;5685;52.384;13.420;2022-09-21T09:15:35;17.10;99.90
11256;HTU21D;5685;52.384;13.420;2022-09-21T09:18:50;17.10;99.90
11256;HTU21D;5685;52.384;13.420;2022-09-21T09:21:54;17.10;99.90
11256;HTU21D;5685;52.384;13.420;2022-09-21T09:25:00;17.10;99.90
11256;HTU21D;5685;52.384;13.420;2022-09-21T09:31:34;17.10;99.90
11256;HTU21D;5685;52.384;13.420;2022-09-21T09:34:40;17.10;99.90
11256;HTU21D;5685;52.384;13.420;2022-09-21T09:37:44;17.10;99.90
11256;HTU21D;5685;52.384;13.420;2022-09-21T09:40:59;17.10;99.90
11256;HTU21D;5685;52.384;13.420;2022-09-21T09:44:32;17.10;99.90
11256;HTU21D;5685;52.384;13.420;2022-09-21T09:47:54;17.10;99.90
11256;HTU21D;5685;52.384;13.420;2022-09-21T09:51:08;17.10;99.90
11256;HTU21D;5685;52.384;13.420;2022-09-21T09:54:15;17.10;99.90
11256;HTU21D;5685;52.384;13.420;2022-09-21T09:57:25;17.10;99.90
11256;HTU21D;5685;52.384;13.420;2022-09-21T10:00:29;17.10;99.90
11256;HTU21D;5685;52.384;13.420;2022-09-21T10:03:33;17.10;99.90
11256;HTU21D;5685;52.384;13.420;2022-09-21T10:06:36;17.10;99.90
11256;HTU21D;5685;52.384;13.420;2022-09-21T10:09:39;17.00;99.90
11256;HTU21D;5685;52.384;13.420;2022-09-21T10:12:45;17.10;99.90
11256;HTU21D;5685;52.384;13.420;2022-09-21T10:15:49;17.10;99.90
11256;HTU21D;5685;52.384;13.420;2022-09-21T10:18:55;17.10;99.90
11256;HTU21D;5685;52.384;13.420;2022-09-21T10:22:01;17.10;99.90
11256;HTU21D;5685;52.384;13.420;2022-09-21T10:25:05;17.10;99.90
11256;HTU21D;5685;52.384;13.420;2022-09-21T10:28:15;17.10;99.90
11256;HTU21D;5685;52.384;13.420;2022-09-21T10:31:21;17.10;99.90
11256;HTU21D;5685;52.384;13.420;2022-09-21T10:34:27;17.10;99.90
11256;HTU21D;5685;52.384;13.420;2022-09-21T10:37:32;17.10;99.90
11256;HTU21D;5685;52.384;13.420;2022-09-21T10:40:37;17.10;99.90
11256;HTU21D;5685;52.384;13.420;2022-09-21T10:43:41;17.10;99.90
11256;HTU21D;5685;52.384;13.420;2022-09-21T10:46:44;17.10;99.90
11256;HTU21D;5685;52.384;13.420;2022-09-21T10:49:50;17.10;99.90
11256;HTU21D;5685;52.384;13.420;2022-09-21T10:52:59;17.10;99.90
11256;HTU21D;5685;52.384;13.420;2022-09-21T10:56:06;17.10;99.90
11256;HTU21D;5685;52.384;13.420;2022-09-21T10:59:24;17.10;99.90
11256;HTU21D;5685;52.384;13.420;2022-09-21T11:02:34;17.10;99.90
11256;HTU21D;5685;52.384;13.420;2022-09-21T11:05:40;17.20;99.90
11256;HTU21D;5685;52.384;13.420;2022-09-21T11:08:49;17.20;99.90
11256;HTU21D;5685;52.384;13.420;2022-09-21T11:11:58;17.20;99.90
11256;HTU21D;5685;52.384;13.420;2022-09-21T11:15:14;17.20;99.90
11256;HTU21D;5685;52.384;13.420;2022-09-21T11:18:28;17.20;99.90
11256;HTU21D;5685;52.384;13.420;2022-09-21T11:21:41;17.20;99.90
11256;HTU21D;5685;52.384;13.420;2022-09-21T11:24:50;17.20;99.90
11256;HTU21D;5685;52.384;13.420;2022-09-21T11:28:03;17.20;99.90
11256;HTU21D;5685;52.384;13.420;2022-09-21T11:31:32;17.20;99.90
11256;HTU21D;5685;52.384;13.420;2022-09-21T11:35:07;17.20;99.90
11256;HTU21D;5685;52.384;13.420;2022-09-21T11:38:33;17.20;99.90
11256;HTU21D;5685;52.384;13.420;2022-09-21T11:41:52;17.20;99.90
11256;HTU21D;5685;52.384;13.420;2022-09-21T11:45:00;17.20;99.90
11256;HTU21D;5685;52.384;13.420;2022-09-21T11:48:14;17.20;99.90
11256;HTU21D;5685;52.384;13.420;2022-09-21T11:51:36;17.20;99.90
11256;HTU21D;5685;52.384;13.420;2022-09-21T11:55:17;17.20;99.90
11256;HTU21D;5685;52.384;13.420;2022-09-21T11:58:50;17.20;99.90
11256;HTU21D;5685;52.384;13.420;2022-09-21T12:05:50;17.20;99.90
11256;HTU21D;5685;52.384;13.420;2022-09-21T12:09:25;17.20;99.90
11256;HTU21D;5685;52.384;13.420;2022-09-21T12:12:45;17.20;99.90
11256;HTU21D;5685;52.384;13.420;2022-09-21T12:16:00;17.30;99.90
11256;HTU21D;5685;52.384;13.420;2022-09-21T12:19:11;17.20;99.90
11256;HTU21D;5685;52.384;13.420;2022-09-21T12:22:20;17.30;99.90
11256;HTU21D;5685;52.384;13.420;2022-09-21T12:25:26;17.30;99.90
11256;HTU21D;5685;52.384;13.420;2022-09-21T12:28:34;17.30;99.90
11256;HTU21D;5685;52.384;13.420;2022-09-21T12:31:44;17.30;99.90
11256;HTU21D;5685;52.384;13.420;2022-09-21T12:34:59;17.30;99.90
11256;HTU21D;5685;52.384;13.420;2022-09-21T12:38:11;17.30;99.90
11256;HTU21D;5685;52.384;13.420;2022-09-21T12:41:19;17.30;99.90
11256;HTU21D;5685;52.384;13.420;2022-09-21T12:44:31;17.30;99.90
11256;HTU21D;5685;52.384;13.420;2022-09-21T12:47:56;17.30;99.90
11256;HTU21D;5685;52.384;13.420;2022-09-21T12:51:05;17.30;99.90
11256;HTU21D;5685;52.384;13.420;2022-09-21T12:54:21;17.30;99.90
11256;HTU21D;5685;52.384;13.420;2022-09-21T12:57:44;17.30;99.90
11256;HTU21D;5685;52.384;13.420;2022-09-21T13:00:58;17.40;99.90
11256;HTU21D;5685;52.384;13.420;2022-09-21T13:04:25;17.30;99.90
11256;HTU21D;5685;52.384;13.420;2022-09-21T13:07:56;17.40;99.90
11256;HTU21D;5685;52.384;13.420;2022-09-21T13:11:04;17.40;99.90
11256;HTU21D;5685;52.384;13.420;2022-09-21T13:14:11;17.40;99.90
11256;HTU21D;5685;52.384;13.420;2022-09-21T13:17:21;17.40;99.90
11256;HTU21D;5685;52.384;13.420;2022-09-21T13:20:25;17.40;99.90
11256;HTU21D;5685;52.384;13.420;2022-09-21T13:23:33;17.40;99.90
11256;HTU21D;5685;52.384;13.420;2022-09-21T13:26:43;17.40;99.90
11256;HTU21D;5685;52.384;13.420;2022-09-21T13:30:18;17.40;99.90
11256;HTU21D;5685;52.384;13.420;2022-09-21T13:33:37;17.40;99.90
11256;HTU21D;5685;52.384;13.420;2022-09-21T13:36:41;17.40;99.90
11256;HTU21D;5685;52.384;13.420;2022-09-21T13:39:44;17.40;99.90
11256;HTU21D;5685;52.384;13.420;2022-09-21T13:42:47;17.40;99.90
11256;HTU21D;5685;52.384;13.420;2022-09-21T13:45:53;17.50;99.90
11256;HTU21D;5685;52.384;13.420;2022-09-21T13:48:58;17.50;99.90
11256;HTU21D;5685;52.384;13.420;2022-09-21T13:52:05;17.50;99.90
11256;HTU21D;5685;52.384;13.420;2022-09-21T13:55:25;17.50;99.90
11256;HTU21D;5685;52.384;13.420;2022-09-21T13:58:32;17.50;99.90
11256;HTU21D;5685;52.384;13.420;2022-09-21T14:01:35;17.50;99.90
11256;HTU21D;5685;52.384;13.420;2022-09-21T14:04:39;17.50;99.90
11256;HTU21D;5685;52.384;13.420;2022-09-21T14:07:44;17.50;99.90
11256;HTU21D;5685;52.384;13.420;2022-09-21T14:10:50;17.50;99.90
11256;HTU21D;5685;52.384;13.420;2022-09-21T14:14:07;17.50;99.90
11256;HTU21D;5685;52.384;13.420;2022-09-21T14:17:34;17.60;99.90
11256;HTU21D;5685;52.384;13.420;2022-09-21T14:20:39;17.60;99.90
11256;HTU21D;5685;52.384;13.420;2022-09-21T14:24:08;17.60;99.90
11256;HTU21D;5685;52.384;13.420;2022-09-21T14:27:24;17.60;99.90
11256;HTU21D;5685;52.384;13.420;2022-09-21T14:30:33;17.60;99.90
11256;HTU21D;5685;52.384;13.420;2022-09-21T14:33:43;17.60;99.90
11256;HTU21D;5685;52.384;13.420;2022-09-21T14:36:51;17.60;99.90
11256;HTU21D;5685;52.384;13.420;2022-09-21T14:39:57;17.60;99.90
11256;HTU21D;5685;52.384;13.420;2022-09-21T14:43:06;17.60;99.90
11256;HTU21D;5685;52.384;13.420;2022-09-21T14:46:37;17.60;99.90
11256;HTU21D;5685;52.384;13.420;2022-09-21T14:50:09;17.60;99.90
11256;HTU21D;5685;52.384;13.420;2022-09-21T14:53:50;17.60;99.90
11256;HTU21D;5685;52.384;13.420;2022-09-21T15:00:37;17.60;99.90
11256;HTU21D;5685;52.384;13.420;2022-09-21T15:03:50;17.60;99.90
11256;HTU21D;5685;52.384;13.420;2022-09-21T15:07:19;17.60;99.90
11256;HTU21D;5685;52.384;13.420;2022-09-21T15:10:55;17.70;99.90
11256;HTU21D;5685;52.384;13.420;2022-09-21T15:14:12;17.70;99.90
11256;HTU21D;5685;52.384;13.420;2022-09-21T15:17:22;17.70;99.90
11256;HTU21D;5685;52.384;13.420;2022-09-21T15:20:27;17.70;99.90
11256;HTU21D;5685;52.384;13.420;2022-09-21T15:23:32;17.70;99.90
11256;HTU21D;5685;52.384;13.420;2022-09-21T15:26:37;17.70;99.90
11256;HTU21D;5685;52.384;13.420;2022-09-21T15:29:42;17.70;99.90
11256;HTU21D;5685;52.384;13.420;2022-09-21T15:32:50;17.70;99.90
11256;HTU21D;5685;52.384;13.420;2022-09-21T15:35:54;17.70;99.90
11256;HTU21D;5685;52.384;13.420;2022-09-21T15:38:56;17.70;99.90
11256;HTU21D;5685;52.384;13.420;2022-09-21T15:42:18;17.70;99.90
11256;HTU21D;5685;52.384;13.420;2022-09-21T15:45:22;17.70;99.90
11256;HTU21D;5685;52.384;13.420;2022-09-21T15:48:27;17.80;99.90
11256;HTU21D;5685;52.384;13.420;2022-09-21T15:51:36;17.80;99.90
11256;HTU21D;5685;52.384;13.420;2022-09-21T15:54:42;17.80;99.90
11256;HTU21D;5685;52.384;13.420;2022-09-21T15:57:51;17.80;99.90
11256;HTU21D;5685;52.384;13.420;2022-09-21T16:00:55;17.80;99.90
11256;HTU21D;5685;52.384;13.420;2022-09-21T16:04:03;17.80;99.90
11256;HTU21D;5685;52.384;13.420;2022-09-21T16:07:24;17.80;99.90
11256;HTU21D;5685;52.384;13.420;2022-09-21T16:10:38;17.80;99.90
11256;HTU21D;5685;52.384;13.420;2022-09-21T16:13:43;17.80;99.90
11256;HTU21D;5685;52.384;13.420;2022-09-21T16:17:05;17.80;99.90
11256;HTU21D;5685;52.384;13.420;2022-09-21T16:20:21;17.80;99.90
11256;HTU21D;5685;52.384;13.420;2022-09-21T16:23:28;17.80;99.90
11256;HTU21D;5685;52.384;13.420;2022-09-21T16:26:34;17.80;99.90
11256;HTU21D;5685;52.384;13.420;2022-09-21T16:29:40;17.80;99.90
11256;HTU21D;5685;52.384;13.420;2022-09-21T16:32:43;17.80;99.90
11256;HTU21D;5685;52.384;13.420;2022-09-21T16:35:47;17.80;99.90
11256;HTU21D;5685;52.384;13.420;2022-09-21T16:38:51;17.90;99.90
11256;HTU21D;5685;52.384;13.420;2022-09-21T16:41:56;17.90;99.90
11256;HTU21D;5685;52.384;13.420;2022-09-21T16:48:30;17.90;99.90
11256;HTU21D;5685;52.384;13.420;2022-09-21T16:51:33;17.90;99.90
11256;HTU21D;5685;52.384;13.420;2022-09-21T16:54:35;17.90;99.90
11256;HTU21D;5685;52.384;13.420;2022-09-21T16:57:37;17.90;99.90
11256;HTU21D;5685;52.384;13.420;2022-09-21T17:00:43;17.90;99.90
11256;HTU21D;5685;52.384;13.420;2022-09-21T17:03:47;17.90;99.90
11256;HTU21D;5685;52.384;13.420;2022-09-21T17:06:49;17.90;99.90
11256;HTU21D;5685;52.384;13.420;2022-09-21T17:09:51;17.90;99.90
11256;HTU21D;5685;52.384;13.420;2022-09-21T17:12:54;17.90;99.90
11256;HTU21D;5685;52.384;13.420;2022-09-21T17:15:58;17.90;99.90
11256;HTU21D;5685;52.384;13.420;2022-09-21T17:19:00;17.90;99.90
11256;HTU21D;5685;52.384;13.420;2022-09-21T17:22:03;17.90;99.90
11256;HTU21D;5685;52.384;13.420;2022-09-21T17:25:07;17.90;99.90
11256;HTU21D;5685;52.384;13.420;2022-09-21T17:28:12;17.90;99.90
11256;HTU21D;5685;52.384;13.420;2022-09-21T17:31:16;17.90;99.90
11256;HTU21D;5685;52.384;13.420;2022-09-21T17:34:23;17.90;99.90
11256;HTU21D;5685;52.384;13.420;2022-09-21T17:37:26;17.90;99.90
11256;HTU21D;5685;52.384;13.420;2022-09-21T17:40:29;17.90;99.90
11256;HTU21D;5685;52.384;13.420;2022-09-21T17:43:36;17.90;99.90
11256;HTU21D;5685;52.384;13.420;2022-09-21T17:46:52;17.90;99.90
11256;HTU21D;5685;52.384;13.420;2022-09-21T17:50:01;17.90;99.90
11256;HTU21D;5685;52.384;13.420;2022-09-21T17:53:09;17.90;99.90
11256;HTU21D;5685;52.384;13.420;2022-09-21T17:56:36;17.90;99.90
11256;HTU21D;5685;52.384;13.420;2022-09-21T17:59:48;17.90;99.90
11256;HTU21D;5685;52.384;13.420;2022-09-21T18:02:56;17.90;99.90
11256;HTU21D;5685;52.384;13.420;2022-09-21T18:05:59;17.90;99.90
11256;HTU21D;5685;52.384;13.420;2022-09-21T18:09:02;18.00;99.90
11256;HTU21D;5685;52.384;13.420;2022-09-21T18:15:57;17.90;99.90
11256;HTU21D;5685;52.384;13.420;2022-09-21T18:19:23;18.00;99.90
11256;HTU21D;5685;52.384;13.420;2022-09-21T18:22:39;18.00;99.90
11256;HTU21D;5685;52.384;13.420;2022-09-21T18:25:53;18.00;99.90
11256;HTU21D;5685;52.384;13.420;2022-09-21T18:28:57;18.00;99.90
11256;HTU21D;5685;52.384;13.420;2022-09-21T18:35:54;18.00;99.90
11256;HTU21D;5685;52.384;13.420;2022-09-21T18:39:11;18.00;99.90
11256;HTU21D;5685;52.384;13.420;2022-09-21T18:42:29;18.00;99.90
11256;HTU21D;5685;52.384;13.420;2022-09-21T18:45:40;18.00;99.90
11256;HTU21D;5685;52.384;13.420;2022-09-21T18:48:51;18.00;99.90
11256;HTU21D;5685;52.384;13.420;2022-09-21T18:52:05;18.00;99.90
11256;HTU21D;5685;52.384;13.420;2022-09-21T18:55:22;18.00;99.90
11256;HTU21D;5685;52.384;13.420;2022-09-21T18:58:26;18.00;99.90
11256;HTU21D;5685;52.384;13.420;2022-09-21T19:01:30;18.00;99.90
11256;HTU21D;5685;52.384;13.420;2022-09-21T19:04:33;18.00;99.90
11256;HTU21D;5685;52.384;13.420;2022-09-21T19:07:41;18.00;99.90
11256;HTU21D;5685;52.384;13.420;2022-09-21T19:10:51;18.00;99.90
11256;HTU21D;5685;52.384;13.420;2022-09-21T19:14:03;18.00;99.90
11256;HTU21D;5685;52.384;13.420;2022-09-21T19:17:19;18.00;99.90
11256;HTU21D;5685;52.384;13.420;2022-09-21T19:20:36;18.00;99.90
11256;HTU21D;5685;52.384;13.420;2022-09-21T19:23:57;18.00;99.90
11256;HTU21D;5685;52.384;13.420;2022-09-21T19:27:25;18.00;99.90
11256;HTU21D;5685;52.384;13.420;2022-09-21T19:30:29;18.00;99.90
11256;HTU21D;5685;52.384;13.420;2022-09-21T19:33:32;18.00;99.90
11256;HTU21D;5685;52.384;13.420;2022-09-21T19:36:34;18.00;99.90
11256;HTU21D;5685;52.384;13.420;2022-09-21T19:39:38;18.00;99.90
11256;HTU21D;5685;52.384;13.420;2022-09-21T19:43:02;18.00;99.90
11256;HTU21D;5685;52.384;13.420;2022-09-21T19:46:19;18.00;99.90
11256;HTU21D;5685;52.384;13.420;2022-09-21T19:49:36;18.00;99.90
11256;HTU21D;5685;52.384;13.420;2022-09-21T19:52:44;18.00;99.90